createdAt,value
2022-10-08T00:00:19.131Z,18.02
2022-10-08T00:04:19.472Z,17.58
2022-10-08T00:08:20.217Z,16.20
2022-10-08T00:12:25.461Z,16.80
2022-10-08T00:16:46.437Z,17.05
2022-10-08T00:20:47.277Z,15.73
2022-10-08T00:24:47.256Z,16.02
2022-10-08T00:28:49.884Z,17.92
2022-10-08T00:32:49.685Z,17.90
2022-10-08T00:36:56.201Z,16.42
2022-10-08T00:40:56.369Z,17.52
2022-10-08T00:45:05.592Z,16.40
2022-10-08T00:49:11.842Z,18.00
2022-10-08T00:53:12.276Z,18.15
2022-10-08T00:57:12.762Z,18.08
2022-10-08T01:01:15.085Z,17.67
2022-10-08T01:05:17.794Z,19.17
2022-10-08T01:09:20.895Z,18.48
2022-10-08T01:13:33.311Z,17.10
2022-10-08T01:17:41.608Z,16.42
2022-10-08T01:21:48.318Z,17.15
2022-10-08T01:25:55.516Z,16.25
2022-10-08T01:29:59.380Z,18.20
2022-10-08T01:34:04.410Z,18.10
2022-10-08T01:38:07.879Z,18.08
2022-10-08T01:42:11.401Z,18.88
2022-10-08T01:46:18.491Z,18.10
2022-10-08T01:50:22.677Z,19.02
2022-10-08T01:54:24.696Z,20.40
2022-10-08T01:58:31.266Z,24.88
2022-10-08T02:02:34.013Z,19.27
2022-10-08T02:06:39.706Z,19.65
2022-10-08T02:10:40.868Z,17.52
2022-10-08T02:14:45.736Z,17.27
2022-10-08T02:18:58.234Z,18.85
2022-10-08T02:23:01.987Z,18.48
2022-10-08T02:27:06.760Z,19.27
2022-10-08T02:31:13.204Z,18.85
2022-10-08T02:35:24.944Z,21.27
2022-10-08T02:39:30.013Z,19.30
2022-10-08T02:43:34.649Z,20.08
2022-10-08T02:47:38.368Z,21.30
2022-10-08T02:51:43.951Z,23.75
2022-10-08T02:55:54.493Z,22.98
2022-10-08T02:59:54.688Z,25.05
2022-10-08T03:04:01.016Z,24.67
2022-10-08T03:08:04.407Z,28.02
2022-10-08T03:12:04.905Z,25.25
2022-10-08T03:16:09.033Z,23.20
2022-10-08T03:20:11.142Z,22.42
2022-10-08T03:24:15.167Z,23.65
2022-10-08T03:28:14.575Z,23.13
2022-10-08T03:32:14.613Z,22.42
2022-10-08T03:36:14.598Z,23.63
2022-10-08T03:40:16.999Z,22.92
2022-10-08T03:44:17.061Z,20.52
2022-10-08T03:48:16.935Z,19.35
2022-10-08T03:52:16.862Z,19.13
2022-10-08T03:56:24.000Z,19.02
2022-10-08T04:00:24.030Z,17.85
2022-10-08T04:04:25.758Z,19.90
2022-10-08T04:08:26.089Z,18.40
2022-10-08T04:12:28.367Z,17.30
2022-10-08T04:16:27.949Z,16.10
2022-10-08T04:20:28.135Z,16.23
2022-10-08T04:24:28.266Z,17.45
2022-10-08T04:28:35.003Z,16.33
2022-10-08T04:32:38.485Z,17.52
2022-10-08T04:36:38.521Z,17.23
2022-10-08T04:40:38.703Z,17.70
2022-10-08T04:44:41.075Z,16.50
2022-10-08T04:48:42.096Z,16.50
2022-10-08T04:52:42.165Z,17.45
2022-10-08T04:56:42.440Z,16.25
2022-10-08T05:00:44.679Z,16.92
2022-10-08T05:04:44.403Z,20.00
2022-10-08T05:08:44.745Z,19.80
2022-10-08T05:12:44.851Z,18.83
2022-10-08T05:16:56.278Z,18.65
2022-10-08T05:20:56.292Z,14.23
2022-10-08T05:24:56.258Z,15.05
2022-10-08T05:28:57.917Z,12.45
2022-10-08T05:33:00.141Z,13.45
2022-10-08T05:36:59.677Z,12.70
2022-10-08T05:41:10.715Z,13.10
2022-10-08T05:45:19.955Z,11.82
2022-10-08T05:49:23.996Z,11.32
2022-10-08T05:53:24.001Z,11.52
2022-10-08T05:57:23.517Z,10.52
2022-10-08T06:01:25.271Z,10.93
2022-10-08T06:05:27.973Z,10.73
2022-10-08T06:09:27.889Z,10.38
2022-10-08T06:13:28.438Z,11.38
2022-10-08T06:17:37.773Z,9.90
2022-10-08T06:21:40.336Z,10.65
2022-10-08T06:25:40.209Z,10.90
2022-10-08T06:29:40.431Z,11.35
2022-10-08T06:33:40.755Z,10.80
2022-10-08T06:37:42.320Z,10.50
2022-10-08T06:41:42.758Z,11.35
2022-10-08T06:45:44.217Z,12.25
2022-10-08T06:49:46.922Z,14.20
2022-10-08T06:54:07.725Z,12.73
2022-10-08T06:58:14.316Z,14.88
2022-10-08T07:02:14.566Z,13.20
2022-10-08T07:06:17.941Z,12.27
2022-10-08T07:10:20.436Z,12.25
2022-10-08T07:14:20.358Z,11.57
2022-10-08T07:18:21.315Z,9.98
2022-10-08T07:22:21.481Z,10.75
2022-10-08T07:26:27.810Z,9.82
2022-10-08T07:30:27.424Z,11.38
2022-10-08T07:34:27.736Z,10.55
2022-10-08T07:38:27.928Z,9.75
2022-10-08T07:42:31.534Z,9.30
2022-10-08T07:46:32.839Z,9.02
2022-10-08T07:50:32.993Z,8.73
2022-10-08T07:54:32.914Z,8.30
2022-10-08T07:58:34.688Z,10.57
2022-10-08T08:02:35.123Z,9.23
2022-10-08T08:11:35.882Z,9.88
2022-10-08T08:15:50.062Z,10.27
2022-10-08T08:19:50.604Z,10.70
2022-10-08T08:23:52.146Z,12.18
2022-10-08T08:28:04.113Z,11.15
2022-10-08T08:32:10.395Z,10.38
2022-10-08T08:36:11.735Z,11.32
2022-10-08T08:40:15.029Z,14.02
2022-10-08T08:44:21.060Z,11.70
2022-10-08T08:48:26.198Z,11.32
2022-10-08T08:52:33.124Z,13.30
2022-10-08T08:56:33.887Z,11.93
2022-10-08T09:00:37.382Z,10.73
2022-10-08T09:04:45.627Z,10.77
2022-10-08T09:08:52.807Z,10.25
2022-10-08T09:12:55.981Z,11.80
2022-10-08T09:16:58.388Z,9.98
2022-10-08T09:21:01.172Z,11.98
2022-10-08T09:25:03.338Z,9.82
2022-10-08T09:29:05.134Z,9.88
2022-10-08T09:33:08.306Z,10.80
2022-10-08T09:37:21.131Z,9.95
2022-10-08T09:41:23.577Z,9.23
2022-10-08T09:45:40.412Z,9.70
2022-10-08T09:49:41.005Z,9.40
2022-10-08T09:53:46.939Z,8.35
2022-10-08T09:57:49.119Z,7.70
2022-10-08T10:01:50.685Z,7.78
2022-10-08T10:05:55.010Z,8.77
2022-10-08T10:10:01.696Z,8.50
2022-10-08T10:14:08.174Z,6.72
2022-10-08T10:18:15.572Z,6.63
2022-10-08T10:22:21.226Z,6.03
2022-10-08T10:26:27.437Z,6.00
2022-10-08T10:30:28.664Z,6.65
2022-10-08T10:34:31.350Z,6.18
2022-10-08T10:38:33.655Z,6.70
2022-10-08T10:42:42.980Z,6.35
2022-10-08T10:46:46.278Z,6.63
2022-10-08T10:51:06.278Z,6.50
2022-10-08T10:55:25.685Z,5.97
2022-10-08T10:59:48.519Z,6.72
2022-10-08T11:03:56.639Z,6.80
2022-10-08T11:08:27.289Z,6.10
2022-10-08T11:12:41.132Z,5.70
2022-10-08T11:17:03.586Z,6.80
2022-10-08T11:21:14.665Z,7.72
2022-10-08T11:25:26.066Z,6.10
2022-10-08T11:29:41.888Z,7.70
2022-10-08T11:33:54.383Z,6.75
2022-10-08T11:38:08.363Z,7.22
2022-10-08T11:42:21.766Z,6.93
2022-10-08T11:46:33.790Z,6.20
2022-10-08T11:50:37.218Z,7.20
2022-10-08T11:54:55.738Z,7.03
2022-10-08T11:59:05.584Z,6.38
2022-10-08T12:03:10.294Z,6.22
2022-10-08T12:07:26.994Z,7.13
2022-10-08T12:11:53.645Z,7.00
2022-10-08T12:16:10.741Z,6.13
2022-10-08T12:20:32.621Z,6.13
2022-10-08T12:24:59.266Z,5.40
2022-10-08T12:29:02.063Z,5.97
2022-10-08T12:33:02.805Z,6.50
2022-10-08T12:37:12.540Z,4.65
2022-10-08T12:41:46.884Z,5.00
2022-10-08T12:45:58.287Z,5.75
2022-10-08T12:50:08.750Z,5.38
2022-10-08T12:54:20.587Z,5.57
2022-10-08T12:58:27.657Z,4.95
2022-10-08T13:02:40.884Z,3.80
2022-10-08T13:06:41.112Z,5.15
2022-10-08T13:10:44.092Z,4.47
2022-10-08T13:14:46.627Z,5.00
2022-10-08T13:19:48.015Z,4.47
2022-10-08T13:24:04.163Z,4.55
2022-10-08T13:28:59.262Z,4.80
2022-10-08T13:50:58.396Z,4.22
2022-10-08T14:08:06.091Z,4.22
2022-10-08T14:12:53.337Z,5.18
2022-10-08T14:17:50.047Z,4.40
2022-10-08T14:22:49.296Z,4.80
2022-10-08T14:33:29.767Z,5.47
2022-10-08T14:39:00.360Z,6.10
2022-10-08T14:43:53.434Z,5.35
2022-10-08T14:48:08.663Z,5.72
2022-10-08T14:52:13.112Z,5.13
2022-10-08T14:56:27.062Z,9.55
2022-10-08T15:05:15.486Z,7.95
2022-10-08T15:09:28.575Z,7.53
2022-10-08T15:13:43.702Z,16.77
2022-10-08T15:18:04.315Z,13.75
2022-10-08T15:22:16.939Z,6.85
2022-10-08T15:26:36.316Z,8.27
2022-10-08T15:31:04.404Z,14.23
2022-10-08T15:35:24.427Z,9.23
2022-10-08T15:40:15.336Z,10.93
2022-10-08T15:45:34.859Z,9.63
2022-10-08T15:50:17.134Z,13.13
2022-10-08T15:55:09.297Z,9.02
2022-10-08T15:59:59.749Z,11.13
2022-10-08T16:04:10.835Z,11.55
2022-10-08T16:08:17.148Z,13.90
2022-10-08T16:12:19.108Z,19.67
2022-10-08T16:17:23.152Z,17.55
2022-10-08T16:22:09.320Z,15.95
2022-10-08T16:27:10.693Z,12.40
2022-10-08T16:31:17.721Z,11.85
2022-10-08T16:35:21.402Z,11.65
2022-10-08T16:39:45.584Z,10.90
2022-10-08T16:44:19.010Z,8.70
2022-10-08T16:48:40.800Z,10.15
2022-10-08T16:53:10.598Z,10.65
2022-10-08T16:57:18.684Z,13.32
2022-10-08T17:01:22.277Z,14.07
2022-10-08T17:05:43.748Z,14.20
2022-10-08T17:09:55.837Z,18.98
2022-10-08T17:14:02.617Z,19.58
2022-10-08T17:18:18.317Z,19.88
2022-10-08T17:22:29.478Z,17.10
2022-10-08T17:33:39.405Z,18.38
2022-10-08T17:50:51.100Z,23.20
2022-10-08T17:55:26.856Z,24.30
2022-10-08T17:59:31.721Z,22.98
2022-10-08T18:04:17.704Z,24.00
2022-10-08T18:08:58.696Z,22.83
2022-10-08T18:13:09.034Z,20.90
2022-10-08T18:17:43.810Z,21.92
2022-10-08T18:21:55.409Z,18.00
2022-10-08T18:26:13.504Z,19.00
2022-10-08T18:30:21.178Z,18.08
2022-10-08T18:34:25.931Z,18.70
2022-10-08T18:38:35.774Z,21.92
2022-10-08T18:42:39.774Z,25.15
2022-10-08T18:46:52.609Z,23.33
2022-10-08T18:51:34.012Z,18.55
2022-10-08T18:55:41.756Z,23.50
2022-10-08T18:59:59.055Z,21.00
2022-10-08T19:04:25.402Z,21.13
2022-10-08T19:08:36.410Z,20.30
2022-10-08T19:12:45.922Z,18.73
2022-10-08T19:17:11.546Z,19.33
2022-10-08T19:25:55.992Z,24.95
2022-10-08T19:30:00.091Z,24.95
2022-10-08T19:34:10.958Z,24.45
2022-10-08T19:38:19.308Z,20.92
2022-10-08T19:42:29.244Z,21.08
2022-10-08T19:46:49.244Z,19.00
2022-10-08T19:51:04.528Z,19.13
2022-10-08T19:55:11.116Z,21.80
2022-10-08T19:59:20.373Z,23.27
2022-10-08T20:03:23.144Z,19.40
2022-10-08T20:12:18.816Z,19.42
2022-10-08T20:16:27.884Z,17.55
2022-10-08T20:20:44.849Z,19.17
2022-10-08T20:25:09.798Z,17.95
2022-10-08T20:29:32.410Z,17.10
2022-10-08T20:33:46.845Z,16.58
2022-10-08T20:38:00.045Z,16.13
2022-10-08T20:42:07.250Z,13.73
2022-10-08T20:46:21.548Z,15.35
2022-10-08T20:50:34.792Z,13.45
2022-10-08T20:54:41.500Z,13.52
2022-10-08T20:58:47.981Z,13.55
2022-10-08T21:02:58.591Z,12.63
2022-10-08T21:07:04.658Z,12.73
2022-10-08T21:11:15.223Z,11.52
2022-10-08T21:15:33.092Z,9.57
2022-10-08T21:19:41.970Z,10.35
2022-10-08T21:23:46.870Z,10.68
2022-10-08T21:27:59.783Z,11.30
2022-10-08T21:32:06.132Z,11.32
2022-10-08T21:36:14.813Z,11.13
2022-10-08T21:40:54.381Z,10.75
2022-10-08T21:45:02.351Z,12.48
2022-10-08T21:49:28.242Z,13.52
2022-10-08T21:53:36.636Z,12.63
2022-10-08T21:57:48.726Z,12.38
2022-10-08T22:02:03.836Z,13.63
2022-10-08T22:06:19.934Z,14.13
2022-10-08T22:10:30.883Z,14.02
2022-10-08T22:14:34.527Z,13.02
2022-10-08T22:18:45.801Z,14.52
2022-10-08T22:22:55.761Z,16.00
2022-10-08T22:27:09.608Z,15.43
2022-10-08T22:31:22.691Z,16.00
2022-10-08T22:35:25.019Z,13.77
2022-10-08T22:48:03.300Z,13.45
2022-10-08T22:52:09.163Z,13.15
2022-10-08T22:56:17.702Z,12.30
2022-10-08T23:00:18.686Z,12.55
2022-10-08T23:04:26.561Z,11.35
2022-10-08T23:08:35.289Z,11.18
2022-10-08T23:12:39.812Z,11.50
2022-10-08T23:16:51.349Z,10.88
2022-10-08T23:21:08.337Z,10.90
2022-10-08T23:25:10.764Z,11.20
2022-10-08T23:29:20.515Z,11.07
2022-10-08T23:33:24.501Z,11.88
2022-10-08T23:37:32.517Z,11.50
2022-10-08T23:41:39.509Z,11.70
2022-10-08T23:45:42.937Z,12.90
2022-10-08T23:49:45.086Z,12.02
2022-10-08T23:53:54.944Z,11.75
2022-10-08T23:57:55.385Z,11.82
